sensor_id;sensor_type;location;lat;lon;timestamp;P1;durP1;ratioP1;P2;durP2;ratioP2
77451;SDS011;66537;52.370;4.832;2023-12-04T00:01:43;32.85;;;10.10;;
77451;SDS011;66537;52.370;4.832;2023-12-04T00:04:12;25.65;;;9.80;;
77451;SDS011;66537;52.370;4.832;2023-12-04T00:06:37;25.45;;;9.52;;
77451;SDS011;66537;52.370;4.832;2023-12-04T00:09:03;28.58;;;9.70;;
77451;SDS011;66537;52.370;4.832;2023-12-04T00:11:28;31.63;;;10.32;;
77451;SDS011;66537;52.370;4.832;2023-12-04T00:13:54;26.90;;;10.50;;
77451;SDS011;66537;52.370;4.832;2023-12-04T00:16:19;25.33;;;9.20;;
77451;SDS011;66537;52.370;4.832;2023-12-04T00:18:44;29.67;;;10.48;;
77451;SDS011;66537;52.370;4.832;2023-12-04T00:21:10;25.63;;;8.53;;
77451;SDS011;66537;52.370;4.832;2023-12-04T00:23:35;25.50;;;9.52;;
77451;SDS011;66537;52.370;4.832;2023-12-04T00:26:04;29.57;;;8.73;;
77451;SDS011;66537;52.370;4.832;2023-12-04T00:28:29;24.77;;;8.68;;
77451;SDS011;66537;52.370;4.832;2023-12-04T00:30:55;26.05;;;9.00;;
77451;SDS011;66537;52.370;4.832;2023-12-04T00:33:20;28.08;;;9.77;;
77451;SDS011;66537;52.370;4.832;2023-12-04T00:35:45;25.73;;;9.43;;
77451;SDS011;66537;52.370;4.832;2023-12-04T00:38:11;24.53;;;8.77;;
77451;SDS011;66537;52.370;4.832;2023-12-04T00:40:36;24.67;;;8.20;;
77451;SDS011;66537;52.370;4.832;2023-12-04T00:43:01;26.55;;;9.63;;
77451;SDS011;66537;52.370;4.832;2023-12-04T00:45:27;27.08;;;9.05;;
77451;SDS011;66537;52.370;4.832;2023-12-04T00:47:52;26.58;;;9.25;;
77451;SDS011;66537;52.370;4.832;2023-12-04T00:50:17;23.27;;;8.57;;
77451;SDS011;66537;52.370;4.832;2023-12-04T00:52:43;27.20;;;9.03;;
77451;SDS011;66537;52.370;4.832;2023-12-04T00:55:08;25.93;;;9.50;;
77451;SDS011;66537;52.370;4.832;2023-12-04T00:57:33;25.60;;;8.98;;
77451;SDS011;66537;52.370;4.832;2023-12-04T00:59:59;24.08;;;9.93;;
77451;SDS011;66537;52.370;4.832;2023-12-04T01:02:24;28.55;;;10.75;;
77451;SDS011;66537;52.370;4.832;2023-12-04T01:04:50;28.27;;;9.68;;
77451;SDS011;66537;52.370;4.832;2023-12-04T01:07:15;27.73;;;9.27;;
77451;SDS011;66537;52.370;4.832;2023-12-04T01:09:41;26.27;;;9.33;;
77451;SDS011;66537;52.370;4.832;2023-12-04T01:12:06;27.27;;;9.60;;
77451;SDS011;66537;52.370;4.832;2023-12-04T01:14:31;27.63;;;9.47;;
77451;SDS011;66537;52.370;4.832;2023-12-04T01:16:57;26.75;;;9.43;;
77451;SDS011;66537;52.370;4.832;2023-12-04T01:19:23;26.60;;;9.77;;
77451;SDS011;66537;52.370;4.832;2023-12-04T01:21:48;27.60;;;9.48;;
77451;SDS011;66537;52.370;4.832;2023-12-04T01:24:14;23.77;;;7.85;;
77451;SDS011;66537;52.370;4.832;2023-12-04T01:26:40;26.77;;;9.45;;
77451;SDS011;66537;52.370;4.832;2023-12-04T01:29:06;25.38;;;9.27;;
77451;SDS011;66537;52.370;4.832;2023-12-04T01:31:31;25.33;;;8.65;;
77451;SDS011;66537;52.370;4.832;2023-12-04T01:33:57;26.83;;;9.88;;
77451;SDS011;66537;52.370;4.832;2023-12-04T01:36:22;26.37;;;8.73;;
77451;SDS011;66537;52.370;4.832;2023-12-04T01:38:47;25.40;;;9.03;;
77451;SDS011;66537;52.370;4.832;2023-12-04T01:41:13;22.63;;;8.00;;
77451;SDS011;66537;52.370;4.832;2023-12-04T01:43:38;25.83;;;9.30;;
77451;SDS011;66537;52.370;4.832;2023-12-04T01:46:03;23.40;;;7.73;;
77451;SDS011;66537;52.370;4.832;2023-12-04T01:48:29;26.17;;;9.30;;
77451;SDS011;66537;52.370;4.832;2023-12-04T01:50:55;27.08;;;8.55;;
77451;SDS011;66537;52.370;4.832;2023-12-04T01:53:23;23.80;;;8.20;;
77451;SDS011;66537;52.370;4.832;2023-12-04T01:55:49;24.27;;;8.88;;
77451;SDS011;66537;52.370;4.832;2023-12-04T01:58:14;25.65;;;9.30;;
77451;SDS011;66537;52.370;4.832;2023-12-04T02:00:40;23.00;;;8.48;;
77451;SDS011;66537;52.370;4.832;2023-12-04T02:03:06;22.92;;;8.63;;
77451;SDS011;66537;52.370;4.832;2023-12-04T02:05:33;25.52;;;8.52;;
77451;SDS011;66537;52.370;4.832;2023-12-04T02:08:00;24.33;;;8.88;;
77451;SDS011;66537;52.370;4.832;2023-12-04T02:10:25;23.75;;;8.40;;
77451;SDS011;66537;52.370;4.832;2023-12-04T02:12:51;23.63;;;8.53;;
77451;SDS011;66537;52.370;4.832;2023-12-04T02:15:16;24.38;;;9.68;;
77451;SDS011;66537;52.370;4.832;2023-12-04T02:17:45;24.17;;;8.32;;
77451;SDS011;66537;52.370;4.832;2023-12-04T02:20:13;20.27;;;7.10;;
77451;SDS011;66537;52.370;4.832;2023-12-04T02:22:39;20.83;;;7.13;;
77451;SDS011;66537;52.370;4.832;2023-12-04T02:25:05;21.92;;;7.70;;
77451;SDS011;66537;52.370;4.832;2023-12-04T02:27:33;22.02;;;8.00;;
77451;SDS011;66537;52.370;4.832;2023-12-04T02:30:10;21.75;;;8.23;;
77451;SDS011;66537;52.370;4.832;2023-12-04T02:32:38;24.90;;;8.80;;
77451;SDS011;66537;52.370;4.832;2023-12-04T02:35:09;22.90;;;7.93;;
77451;SDS011;66537;52.370;4.832;2023-12-04T02:37:36;23.30;;;7.88;;
77451;SDS011;66537;52.370;4.832;2023-12-04T02:40:02;24.63;;;8.80;;
77451;SDS011;66537;52.370;4.832;2023-12-04T02:42:28;21.40;;;7.82;;
77451;SDS011;66537;52.370;4.832;2023-12-04T02:44:54;23.85;;;8.63;;
77451;SDS011;66537;52.370;4.832;2023-12-04T02:47:19;24.20;;;9.40;;
77451;SDS011;66537;52.370;4.832;2023-12-04T02:49:44;23.63;;;8.25;;
77451;SDS011;66537;52.370;4.832;2023-12-04T02:52:10;22.50;;;8.35;;
77451;SDS011;66537;52.370;4.832;2023-12-04T02:54:35;23.52;;;9.18;;
77451;SDS011;66537;52.370;4.832;2023-12-04T02:57:01;20.75;;;7.70;;
77451;SDS011;66537;52.370;4.832;2023-12-04T02:59:26;24.17;;;9.23;;
77451;SDS011;66537;52.370;4.832;2023-12-04T03:01:51;21.97;;;7.43;;
77451;SDS011;66537;52.370;4.832;2023-12-04T03:04:18;24.53;;;9.30;;
77451;SDS011;66537;52.370;4.832;2023-12-04T03:06:44;21.55;;;7.75;;
77451;SDS011;66537;52.370;4.832;2023-12-04T03:09:09;25.70;;;7.80;;
77451;SDS011;66537;52.370;4.832;2023-12-04T03:11:35;23.10;;;9.03;;
77451;SDS011;66537;52.370;4.832;2023-12-04T03:14:00;21.60;;;7.93;;
77451;SDS011;66537;52.370;4.832;2023-12-04T03:16:26;23.58;;;9.15;;
77451;SDS011;66537;52.370;4.832;2023-12-04T03:18:52;23.17;;;8.13;;
77451;SDS011;66537;52.370;4.832;2023-12-04T03:21:17;20.40;;;7.07;;
77451;SDS011;66537;52.370;4.832;2023-12-04T03:23:42;21.93;;;7.70;;
77451;SDS011;66537;52.370;4.832;2023-12-04T03:26:08;22.33;;;8.48;;
77451;SDS011;66537;52.370;4.832;2023-12-04T03:28:34;23.83;;;7.97;;
77451;SDS011;66537;52.370;4.832;2023-12-04T03:30:59;23.08;;;8.02;;
77451;SDS011;66537;52.370;4.832;2023-12-04T03:33:25;20.17;;;8.20;;
77451;SDS011;66537;52.370;4.832;2023-12-04T03:35:50;21.27;;;8.27;;
77451;SDS011;66537;52.370;4.832;2023-12-04T03:38:15;22.10;;;7.60;;
77451;SDS011;66537;52.370;4.832;2023-12-04T03:40:41;20.57;;;8.03;;
77451;SDS011;66537;52.370;4.832;2023-12-04T03:43:06;21.33;;;7.43;;
77451;SDS011;66537;52.370;4.832;2023-12-04T03:45:31;22.07;;;7.47;;
77451;SDS011;66537;52.370;4.832;2023-12-04T03:47:56;20.73;;;8.00;;
77451;SDS011;66537;52.370;4.832;2023-12-04T03:50:22;21.63;;;7.43;;
77451;SDS011;66537;52.370;4.832;2023-12-04T03:52:47;22.65;;;9.10;;
77451;SDS011;66537;52.370;4.832;2023-12-04T03:55:13;21.55;;;7.22;;
77451;SDS011;66537;52.370;4.832;2023-12-04T03:57:38;19.40;;;7.82;;
77451;SDS011;66537;52.370;4.832;2023-12-04T04:00:04;23.87;;;8.50;;
77451;SDS011;66537;52.370;4.832;2023-12-04T04:02:30;22.88;;;7.85;;
77451;SDS011;66537;52.370;4.832;2023-12-04T04:04:55;22.10;;;7.55;;
77451;SDS011;66537;52.370;4.832;2023-12-04T04:07:21;22.92;;;8.73;;
77451;SDS011;66537;52.370;4.832;2023-12-04T04:09:46;21.67;;;7.85;;
77451;SDS011;66537;52.370;4.832;2023-12-04T04:12:11;27.17;;;9.30;;
77451;SDS011;66537;52.370;4.832;2023-12-04T04:14:37;26.05;;;9.55;;
77451;SDS011;66537;52.370;4.832;2023-12-04T04:17:02;23.33;;;8.20;;
77451;SDS011;66537;52.370;4.832;2023-12-04T04:19:28;21.20;;;8.07;;
77451;SDS011;66537;52.370;4.832;2023-12-04T04:21:54;22.20;;;9.15;;
77451;SDS011;66537;52.370;4.832;2023-12-04T04:24:19;19.70;;;8.48;;
77451;SDS011;66537;52.370;4.832;2023-12-04T04:26:45;21.83;;;7.50;;
77451;SDS011;66537;52.370;4.832;2023-12-04T04:29:10;21.77;;;7.57;;
77451;SDS011;66537;52.370;4.832;2023-12-04T04:31:36;21.55;;;7.05;;
77451;SDS011;66537;52.370;4.832;2023-12-04T04:34:01;25.33;;;8.70;;
77451;SDS011;66537;52.370;4.832;2023-12-04T04:36:26;23.38;;;8.35;;
77451;SDS011;66537;52.370;4.832;2023-12-04T04:38:52;22.63;;;7.28;;
77451;SDS011;66537;52.370;4.832;2023-12-04T04:41:17;21.97;;;8.33;;
77451;SDS011;66537;52.370;4.832;2023-12-04T04:43:42;22.17;;;8.13;;
77451;SDS011;66537;52.370;4.832;2023-12-04T04:46:08;20.55;;;7.47;;
77451;SDS011;66537;52.370;4.832;2023-12-04T04:48:33;22.92;;;8.20;;
77451;SDS011;66537;52.370;4.832;2023-12-04T04:50:59;23.53;;;8.07;;
77451;SDS011;66537;52.370;4.832;2023-12-04T04:53:24;18.60;;;7.10;;
77451;SDS011;66537;52.370;4.832;2023-12-04T04:55:49;20.93;;;8.07;;
77451;SDS011;66537;52.370;4.832;2023-12-04T04:58:15;24.20;;;7.93;;
77451;SDS011;66537;52.370;4.832;2023-12-04T05:00:41;21.63;;;7.57;;
77451;SDS011;66537;52.370;4.832;2023-12-04T05:03:07;21.35;;;7.68;;
77451;SDS011;66537;52.370;4.832;2023-12-04T05:05:32;21.85;;;7.85;;
77451;SDS011;66537;52.370;4.832;2023-12-04T05:07:57;23.30;;;7.83;;
77451;SDS011;66537;52.370;4.832;2023-12-04T05:10:23;21.23;;;7.00;;
77451;SDS011;66537;52.370;4.832;2023-12-04T05:12:48;22.47;;;7.67;;
77451;SDS011;66537;52.370;4.832;2023-12-04T05:15:13;19.98;;;7.20;;
77451;SDS011;66537;52.370;4.832;2023-12-04T05:17:39;21.77;;;7.72;;
77451;SDS011;66537;52.370;4.832;2023-12-04T05:20:05;19.85;;;8.60;;
77451;SDS011;66537;52.370;4.832;2023-12-04T05:22:31;22.02;;;8.07;;
77451;SDS011;66537;52.370;4.832;2023-12-04T05:24:56;20.27;;;7.13;;
77451;SDS011;66537;52.370;4.832;2023-12-04T05:27:22;17.65;;;6.88;;
77451;SDS011;66537;52.370;4.832;2023-12-04T05:29:47;18.73;;;6.73;;
77451;SDS011;66537;52.370;4.832;2023-12-04T05:32:12;20.27;;;7.05;;
77451;SDS011;66537;52.370;4.832;2023-12-04T05:34:38;19.35;;;7.50;;
77451;SDS011;66537;52.370;4.832;2023-12-04T05:37:03;19.67;;;7.03;;
77451;SDS011;66537;52.370;4.832;2023-12-04T05:39:28;19.27;;;7.07;;
77451;SDS011;66537;52.370;4.832;2023-12-04T05:41:54;20.60;;;7.43;;
77451;SDS011;66537;52.370;4.832;2023-12-04T05:44:19;18.10;;;7.50;;
77451;SDS011;66537;52.370;4.832;2023-12-04T05:46:45;19.25;;;7.13;;
77451;SDS011;66537;52.370;4.832;2023-12-04T05:49:10;17.73;;;6.87;;
77451;SDS011;66537;52.370;4.832;2023-12-04T05:51:35;21.77;;;8.63;;
77451;SDS011;66537;52.370;4.832;2023-12-04T05:54:00;23.77;;;8.33;;
77451;SDS011;66537;52.370;4.832;2023-12-04T05:56:26;20.37;;;7.33;;
77451;SDS011;66537;52.370;4.832;2023-12-04T05:58:51;21.27;;;7.47;;
77451;SDS011;66537;52.370;4.832;2023-12-04T06:01:16;18.83;;;6.73;;
77451;SDS011;66537;52.370;4.832;2023-12-04T06:03:42;20.60;;;7.57;;
77451;SDS011;66537;52.370;4.832;2023-12-04T06:06:07;18.40;;;6.57;;
77451;SDS011;66537;52.370;4.832;2023-12-04T06:08:32;22.13;;;7.72;;
77451;SDS011;66537;52.370;4.832;2023-12-04T06:10:58;18.97;;;7.33;;
77451;SDS011;66537;52.370;4.832;2023-12-04T06:13:23;17.83;;;6.40;;
77451;SDS011;66537;52.370;4.832;2023-12-04T06:15:48;18.43;;;7.20;;
77451;SDS011;66537;52.370;4.832;2023-12-04T06:18:14;16.38;;;6.18;;
77451;SDS011;66537;52.370;4.832;2023-12-04T06:20:39;17.90;;;6.65;;
77451;SDS011;66537;52.370;4.832;2023-12-04T06:23:05;18.03;;;6.20;;
77451;SDS011;66537;52.370;4.832;2023-12-04T06:25:30;19.13;;;7.50;;
77451;SDS011;66537;52.370;4.832;2023-12-04T06:27:56;20.73;;;7.45;;
77451;SDS011;66537;52.370;4.832;2023-12-04T06:30:22;20.08;;;7.40;;
77451;SDS011;66537;52.370;4.832;2023-12-04T06:32:47;16.30;;;6.20;;
77451;SDS011;66537;52.370;4.832;2023-12-04T06:35:13;17.50;;;6.20;;
77451;SDS011;66537;52.370;4.832;2023-12-04T06:37:39;16.15;;;7.03;;
77451;SDS011;66537;52.370;4.832;2023-12-04T06:40:05;21.35;;;6.88;;
77451;SDS011;66537;52.370;4.832;2023-12-04T06:42:33;18.35;;;7.03;;
77451;SDS011;66537;52.370;4.832;2023-12-04T06:45:02;17.17;;;6.32;;
77451;SDS011;66537;52.370;4.832;2023-12-04T06:47:28;17.00;;;6.05;;
77451;SDS011;66537;52.370;4.832;2023-12-04T06:49:56;18.73;;;7.75;;
77451;SDS011;66537;52.370;4.832;2023-12-04T06:52:21;20.20;;;7.00;;
77451;SDS011;66537;52.370;4.832;2023-12-04T06:54:47;17.30;;;6.22;;
77451;SDS011;66537;52.370;4.832;2023-12-04T06:57:12;19.38;;;7.25;;
77451;SDS011;66537;52.370;4.832;2023-12-04T06:59:39;19.70;;;7.00;;
77451;SDS011;66537;52.370;4.832;2023-12-04T07:02:07;15.40;;;6.90;;
77451;SDS011;66537;52.370;4.832;2023-12-04T07:04:33;16.63;;;6.28;;
77451;SDS011;66537;52.370;4.832;2023-12-04T07:06:58;19.73;;;7.25;;
77451;SDS011;66537;52.370;4.832;2023-12-04T07:09:29;20.63;;;8.20;;
77451;SDS011;66537;52.370;4.832;2023-12-04T07:11:58;16.42;;;6.47;;
77451;SDS011;66537;52.370;4.832;2023-12-04T07:14:24;20.73;;;8.48;;
77451;SDS011;66537;52.370;4.832;2023-12-04T07:16:49;16.85;;;6.40;;
77451;SDS011;66537;52.370;4.832;2023-12-04T07:19:15;21.20;;;7.27;;
77451;SDS011;66537;52.370;4.832;2023-12-04T07:21:41;19.08;;;6.95;;
77451;SDS011;66537;52.370;4.832;2023-12-04T07:24:07;17.85;;;6.45;;
77451;SDS011;66537;52.370;4.832;2023-12-04T07:26:36;19.88;;;7.60;;
77451;SDS011;66537;52.370;4.832;2023-12-04T07:29:02;17.05;;;6.72;;
77451;SDS011;66537;52.370;4.832;2023-12-04T07:31:28;17.55;;;6.57;;
77451;SDS011;66537;52.370;4.832;2023-12-04T07:33:53;16.40;;;6.23;;
77451;SDS011;66537;52.370;4.832;2023-12-04T07:36:19;14.63;;;6.20;;
77451;SDS011;66537;52.370;4.832;2023-12-04T07:38:44;17.40;;;6.28;;
77451;SDS011;66537;52.370;4.832;2023-12-04T07:41:10;18.25;;;6.97;;
77451;SDS011;66537;52.370;4.832;2023-12-04T07:43:36;14.40;;;5.75;;
77451;SDS011;66537;52.370;4.832;2023-12-04T07:46:01;15.93;;;7.00;;
77451;SDS011;66537;52.370;4.832;2023-12-04T07:48:26;15.55;;;7.00;;
77451;SDS011;66537;52.370;4.832;2023-12-04T07:50:52;16.92;;;6.57;;
77451;SDS011;66537;52.370;4.832;2023-12-04T07:53:17;18.45;;;6.45;;
77451;SDS011;66537;52.370;4.832;2023-12-04T07:55:43;16.92;;;6.43;;
77451;SDS011;66537;52.370;4.832;2023-12-04T07:58:09;14.52;;;5.95;;
77451;SDS011;66537;52.370;4.832;2023-12-04T08:00:34;17.83;;;6.55;;
77451;SDS011;66537;52.370;4.832;2023-12-04T08:03:00;13.07;;;6.80;;
77451;SDS011;66537;52.370;4.832;2023-12-04T08:05:25;16.38;;;6.13;;
77451;SDS011;66537;52.370;4.832;2023-12-04T08:07:52;16.42;;;6.32;;
77451;SDS011;66537;52.370;4.832;2023-12-04T08:10:17;16.05;;;6.55;;
77451;SDS011;66537;52.370;4.832;2023-12-04T08:12:44;17.20;;;6.80;;
77451;SDS011;66537;52.370;4.832;2023-12-04T08:15:10;16.25;;;6.68;;
77451;SDS011;66537;52.370;4.832;2023-12-04T08:17:36;17.45;;;6.65;;
77451;SDS011;66537;52.370;4.832;2023-12-04T08:20:01;15.63;;;5.93;;
77451;SDS011;66537;52.370;4.832;2023-12-04T08:22:27;18.65;;;6.35;;
77451;SDS011;66537;52.370;4.832;2023-12-04T08:24:52;14.57;;;6.25;;
77451;SDS011;66537;52.370;4.832;2023-12-04T08:27:18;14.75;;;5.90;;
77451;SDS011;66537;52.370;4.832;2023-12-04T08:29:43;15.63;;;6.93;;
77451;SDS011;66537;52.370;4.832;2023-12-04T08:32:09;17.75;;;5.35;;
77451;SDS011;66537;52.370;4.832;2023-12-04T08:34:34;16.33;;;6.05;;
77451;SDS011;66537;52.370;4.832;2023-12-04T08:36:59;15.30;;;6.27;;
77451;SDS011;66537;52.370;4.832;2023-12-04T08:39:24;15.53;;;5.83;;
77451;SDS011;66537;52.370;4.832;2023-12-04T08:41:50;12.90;;;5.30;;
77451;SDS011;66537;52.370;4.832;2023-12-04T08:44:15;14.57;;;5.30;;
77451;SDS011;66537;52.370;4.832;2023-12-04T08:46:41;14.02;;;6.65;;
77451;SDS011;66537;52.370;4.832;2023-12-04T08:49:08;15.20;;;6.05;;
77451;SDS011;66537;52.370;4.832;2023-12-04T08:51:34;16.13;;;6.07;;
77451;SDS011;66537;52.370;4.832;2023-12-04T08:53:59;14.15;;;5.55;;
77451;SDS011;66537;52.370;4.832;2023-12-04T08:56:25;13.82;;;5.53;;
77451;SDS011;66537;52.370;4.832;2023-12-04T08:58:50;13.17;;;5.50;;
77451;SDS011;66537;52.370;4.832;2023-12-04T09:01:15;14.05;;;5.50;;
77451;SDS011;66537;52.370;4.832;2023-12-04T09:03:41;14.45;;;5.53;;
77451;SDS011;66537;52.370;4.832;2023-12-04T09:06:06;18.00;;;6.45;;
77451;SDS011;66537;52.370;4.832;2023-12-04T09:08:32;12.93;;;4.78;;
77451;SDS011;66537;52.370;4.832;2023-12-04T09:10:58;15.40;;;5.43;;
77451;SDS011;66537;52.370;4.832;2023-12-04T09:13:24;13.07;;;5.23;;
77451;SDS011;66537;52.370;4.832;2023-12-04T09:15:49;11.73;;;4.47;;
77451;SDS011;66537;52.370;4.832;2023-12-04T09:18:14;11.80;;;5.25;;
77451;SDS011;66537;52.370;4.832;2023-12-04T09:20:40;14.80;;;4.72;;
77451;SDS011;66537;52.370;4.832;2023-12-04T09:23:06;12.13;;;5.13;;
77451;SDS011;66537;52.370;4.832;2023-12-04T09:25:31;12.07;;;4.90;;
77451;SDS011;66537;52.370;4.832;2023-12-04T09:27:57;15.13;;;5.05;;
77451;SDS011;66537;52.370;4.832;2023-12-04T09:30:22;12.50;;;4.63;;
77451;SDS011;66537;52.370;4.832;2023-12-04T09:32:48;12.25;;;5.32;;
77451;SDS011;66537;52.370;4.832;2023-12-04T09:35:13;12.47;;;5.03;;
77451;SDS011;66537;52.370;4.832;2023-12-04T09:37:40;11.27;;;4.65;;
77451;SDS011;66537;52.370;4.832;2023-12-04T09:40:05;9.50;;;4.20;;
77451;SDS011;66537;52.370;4.832;2023-12-04T09:42:33;12.63;;;4.90;;
77451;SDS011;66537;52.370;4.832;2023-12-04T09:44:59;12.07;;;4.78;;
77451;SDS011;66537;52.370;4.832;2023-12-04T09:47:25;10.60;;;4.75;;
77451;SDS011;66537;52.370;4.832;2023-12-04T09:49:51;14.00;;;5.05;;
77451;SDS011;66537;52.370;4.832;2023-12-04T09:52:19;10.95;;;4.82;;
77451;SDS011;66537;52.370;4.832;2023-12-04T09:54:44;10.93;;;5.20;;
77451;SDS011;66537;52.370;4.832;2023-12-04T09:57:10;13.07;;;4.55;;
77451;SDS011;66537;52.370;4.832;2023-12-04T09:59:37;14.95;;;4.32;;
77451;SDS011;66537;52.370;4.832;2023-12-04T10:02:04;9.35;;;3.78;;
77451;SDS011;66537;52.370;4.832;2023-12-04T10:04:30;13.38;;;4.32;;
77451;SDS011;66537;52.370;4.832;2023-12-04T10:06:57;16.10;;;5.72;;
77451;SDS011;66537;52.370;4.832;2023-12-04T10:09:22;9.93;;;4.20;;
77451;SDS011;66537;52.370;4.832;2023-12-04T10:11:48;14.73;;;5.38;;
77451;SDS011;66537;52.370;4.832;2023-12-04T10:14:18;10.75;;;4.20;;
77451;SDS011;66537;52.370;4.832;2023-12-04T10:16:44;10.98;;;4.47;;
77451;SDS011;66537;52.370;4.832;2023-12-04T10:19:17;11.05;;;4.40;;
77451;SDS011;66537;52.370;4.832;2023-12-04T10:21:44;9.32;;;4.18;;
77451;SDS011;66537;52.370;4.832;2023-12-04T10:24:11;13.50;;;4.07;;
77451;SDS011;66537;52.370;4.832;2023-12-04T10:26:36;12.50;;;4.20;;
77451;SDS011;66537;52.370;4.832;2023-12-04T10:29:03;10.38;;;4.60;;
77451;SDS011;66537;52.370;4.832;2023-12-04T10:31:33;12.48;;;4.43;;
77451;SDS011;66537;52.370;4.832;2023-12-04T10:33:59;11.68;;;4.47;;
77451;SDS011;66537;52.370;4.832;2023-12-04T10:36:24;11.25;;;3.72;;
77451;SDS011;66537;52.370;4.832;2023-12-04T10:38:59;13.15;;;4.97;;
77451;SDS011;66537;52.370;4.832;2023-12-04T10:41:25;11.57;;;4.75;;
77451;SDS011;66537;52.370;4.832;2023-12-04T10:43:51;12.00;;;4.35;;
77451;SDS011;66537;52.370;4.832;2023-12-04T10:46:16;11.03;;;4.47;;
77451;SDS011;66537;52.370;4.832;2023-12-04T10:48:44;11.20;;;4.50;;
77451;SDS011;66537;52.370;4.832;2023-12-04T10:51:10;13.10;;;4.57;;
77451;SDS011;66537;52.370;4.832;2023-12-04T10:53:37;14.45;;;4.53;;
77451;SDS011;66537;52.370;4.832;2023-12-04T10:56:04;10.55;;;4.45;;
77451;SDS011;66537;52.370;4.832;2023-12-04T10:58:30;12.93;;;5.13;;
77451;SDS011;66537;52.370;4.832;2023-12-04T11:00:57;11.55;;;4.72;;
77451;SDS011;66537;52.370;4.832;2023-12-04T11:03:28;11.00;;;4.28;;
77451;SDS011;66537;52.370;4.832;2023-12-04T11:06:01;12.93;;;4.57;;
77451;SDS011;66537;52.370;4.832;2023-12-04T11:08:29;10.77;;;4.63;;
77451;SDS011;66537;52.370;4.832;2023-12-04T11:10:59;10.90;;;4.55;;
77451;SDS011;66537;52.370;4.832;2023-12-04T11:13:34;14.15;;;5.20;;
77451;SDS011;66537;52.370;4.832;2023-12-04T11:16:07;11.35;;;4.53;;
77451;SDS011;66537;52.370;4.832;2023-12-04T11:19:16;13.48;;;4.28;;
77451;SDS011;66537;52.370;4.832;2023-12-04T11:21:55;11.35;;;4.28;;
77451;SDS011;66537;52.370;4.832;2023-12-04T11:24:23;11.43;;;4.22;;
77451;SDS011;66537;52.370;4.832;2023-12-04T11:26:49;13.77;;;4.75;;
77451;SDS011;66537;52.370;4.832;2023-12-04T11:29:16;11.65;;;4.35;;
77451;SDS011;66537;52.370;4.832;2023-12-04T11:31:42;11.85;;;5.05;;
77451;SDS011;66537;52.370;4.832;2023-12-04T11:34:08;11.98;;;4.53;;
77451;SDS011;66537;52.370;4.832;2023-12-04T11:36:36;13.68;;;4.63;;
77451;SDS011;66537;52.370;4.832;2023-12-04T11:39:02;12.13;;;4.40;;
77451;SDS011;66537;52.370;4.832;2023-12-04T11:41:29;11.20;;;4.60;;
77451;SDS011;66537;52.370;4.832;2023-12-04T11:43:55;10.45;;;4.35;;
77451;SDS011;66537;52.370;4.832;2023-12-04T11:46:22;12.98;;;4.90;;
77451;SDS011;66537;52.370;4.832;2023-12-04T11:49:34;13.63;;;5.15;;
77451;SDS011;66537;52.370;4.832;2023-12-04T11:52:05;12.35;;;4.68;;
77451;SDS011;66537;52.370;4.832;2023-12-04T11:54:55;12.10;;;4.15;;
77451;SDS011;66537;52.370;4.832;2023-12-04T11:57:25;11.40;;;5.15;;
77451;SDS011;66537;52.370;4.832;2023-12-04T12:00:03;10.50;;;4.25;;
77451;SDS011;66537;52.370;4.832;2023-12-04T12:02:40;12.02;;;4.43;;
77451;SDS011;66537;52.370;4.832;2023-12-04T12:05:06;13.02;;;4.72;;
77451;SDS011;66537;52.370;4.832;2023-12-04T12:07:33;17.52;;;5.38;;
77451;SDS011;66537;52.370;4.832;2023-12-04T12:09:58;13.40;;;4.63;;
77451;SDS011;66537;52.370;4.832;2023-12-04T12:12:25;12.05;;;4.65;;
77451;SDS011;66537;52.370;4.832;2023-12-04T12:14:51;11.32;;;4.95;;
77451;SDS011;66537;52.370;4.832;2023-12-04T12:17:16;11.95;;;5.03;;
77451;SDS011;66537;52.370;4.832;2023-12-04T12:19:42;11.90;;;4.82;;
77451;SDS011;66537;52.370;4.832;2023-12-04T12:22:09;11.80;;;5.40;;
77451;SDS011;66537;52.370;4.832;2023-12-04T12:24:34;12.35;;;5.15;;
77451;SDS011;66537;52.370;4.832;2023-12-04T12:26:59;12.23;;;4.95;;
77451;SDS011;66537;52.370;4.832;2023-12-04T12:29:25;11.95;;;4.72;;
77451;SDS011;66537;52.370;4.832;2023-12-04T12:31:52;11.88;;;5.00;;
77451;SDS011;66537;52.370;4.832;2023-12-04T12:34:17;11.77;;;4.77;;
77451;SDS011;66537;52.370;4.832;2023-12-04T12:36:43;12.23;;;4.73;;
77451;SDS011;66537;52.370;4.832;2023-12-04T12:39:08;12.48;;;4.97;;
77451;SDS011;66537;52.370;4.832;2023-12-04T12:41:34;14.70;;;5.20;;
77451;SDS011;66537;52.370;4.832;2023-12-04T12:44:00;15.52;;;5.65;;
77451;SDS011;66537;52.370;4.832;2023-12-04T12:46:26;14.52;;;5.47;;
77451;SDS011;66537;52.370;4.832;2023-12-04T12:48:51;15.07;;;5.47;;
77451;SDS011;66537;52.370;4.832;2023-12-04T12:51:17;14.95;;;5.45;;
77451;SDS011;66537;52.370;4.832;2023-12-04T12:53:43;14.18;;;5.93;;
77451;SDS011;66537;52.370;4.832;2023-12-04T12:56:09;14.18;;;5.95;;
77451;SDS011;66537;52.370;4.832;2023-12-04T12:58:35;13.48;;;6.15;;
77451;SDS011;66537;52.370;4.832;2023-12-04T13:01:00;12.73;;;5.60;;
77451;SDS011;66537;52.370;4.832;2023-12-04T13:03:26;14.25;;;6.07;;
77451;SDS011;66537;52.370;4.832;2023-12-04T13:05:56;15.18;;;6.18;;
77451;SDS011;66537;52.370;4.832;2023-12-04T13:08:21;19.47;;;6.17;;
77451;SDS011;66537;52.370;4.832;2023-12-04T13:10:46;15.87;;;7.00;;
77451;SDS011;66537;52.370;4.832;2023-12-04T13:13:12;17.25;;;7.38;;
77451;SDS011;66537;52.370;4.832;2023-12-04T13:15:38;16.42;;;7.00;;
77451;SDS011;66537;52.370;4.832;2023-12-04T13:18:06;16.08;;;6.30;;
77451;SDS011;66537;52.370;4.832;2023-12-04T13:20:31;17.60;;;7.35;;
77451;SDS011;66537;52.370;4.832;2023-12-04T13:22:57;16.90;;;6.43;;
77451;SDS011;66537;52.370;4.832;2023-12-04T13:25:22;15.70;;;6.40;;
77451;SDS011;66537;52.370;4.832;2023-12-04T13:27:47;13.50;;;5.68;;
77451;SDS011;66537;52.370;4.832;2023-12-04T13:30:13;17.40;;;7.30;;
77451;SDS011;66537;52.370;4.832;2023-12-04T13:32:38;16.05;;;6.65;;
77451;SDS011;66537;52.370;4.832;2023-12-04T13:35:04;19.30;;;6.60;;
77451;SDS011;66537;52.370;4.832;2023-12-04T13:37:30;18.00;;;6.30;;
77451;SDS011;66537;52.370;4.832;2023-12-04T13:39:56;14.60;;;5.50;;
77451;SDS011;66537;52.370;4.832;2023-12-04T13:42:31;13.95;;;6.22;;
77451;SDS011;66537;52.370;4.832;2023-12-04T13:45:15;15.85;;;5.97;;
77451;SDS011;66537;52.370;4.832;2023-12-04T13:47:41;18.00;;;7.70;;
77451;SDS011;66537;52.370;4.832;2023-12-04T13:50:07;14.87;;;6.00;;
77451;SDS011;66537;52.370;4.832;2023-12-04T13:52:36;18.48;;;6.72;;
77451;SDS011;66537;52.370;4.832;2023-12-04T13:55:02;14.65;;;5.47;;
77451;SDS011;66537;52.370;4.832;2023-12-04T13:57:37;16.58;;;6.25;;
77451;SDS011;66537;52.370;4.832;2023-12-04T14:00:10;15.05;;;6.07;;
77451;SDS011;66537;52.370;4.832;2023-12-04T14:02:36;13.57;;;5.85;;
77451;SDS011;66537;52.370;4.832;2023-12-04T14:05:02;13.93;;;5.90;;
77451;SDS011;66537;52.370;4.832;2023-12-04T14:07:28;13.75;;;6.30;;
77451;SDS011;66537;52.370;4.832;2023-12-04T14:09:53;15.40;;;6.45;;
77451;SDS011;66537;52.370;4.832;2023-12-04T14:12:19;14.60;;;5.90;;
77451;SDS011;66537;52.370;4.832;2023-12-04T14:14:44;15.25;;;5.78;;
77451;SDS011;66537;52.370;4.832;2023-12-04T14:17:10;16.77;;;7.47;;
77451;SDS011;66537;52.370;4.832;2023-12-04T14:19:36;15.10;;;6.28;;
77451;SDS011;66537;52.370;4.832;2023-12-04T14:22:04;15.15;;;6.15;;
77451;SDS011;66537;52.370;4.832;2023-12-04T14:24:29;13.02;;;5.43;;
77451;SDS011;66537;52.370;4.832;2023-12-04T14:26:55;15.37;;;6.60;;
77451;SDS011;66537;52.370;4.832;2023-12-04T14:29:20;16.60;;;6.80;;